Time;durP1;ratioP1;P1;durP2;ratioP2;P2;SDS_P1;SDS_P2;PMS_P1;PMS_P2;Temp;Humidity;BMP_temperature;BMP_pressure;BME280_temperature;BME280_humidity;BME280_pressure;Samples;Min_cycle;Max_cycle;Signal;HPM_P1;HPM_P2
2023/04/10 00:00:29;;;;;;;1.70;1.70;;;18.30;63.00;;;;;;5076248;28;43641;-77
2023/04/10 00:02:58;;;;;;;1.80;1.80;;;18.30;62.70;;;;;;5070507;28;45853;-78
2023/04/10 00:05:27;;;;;;;1.80;1.80;;;18.40;62.40;;;;;;5076399;28;45255;-77
2023/04/10 00:07:55;;;;;;;1.87;1.87;;;18.50;62.20;;;;;;5075746;28;44000;-77
2023/04/10 00:10:25;;;;;;;2.03;2.03;;;18.50;62.10;;;;;;5076923;28;43435;-77
2023/04/10 00:12:55;;;;;;;1.83;1.83;;;18.40;62.20;;;;;;5093634;28;44069;-77
2023/04/10 00:15:23;;;;;;;1.90;1.90;;;18.40;62.40;;;;;;5075718;28;43349;-76
2023/04/10 00:17:54;;;;;;;1.70;1.70;;;18.40;62.20;;;;;;5093506;28;43392;-77
2023/04/10 00:20:22;;;;;;;1.83;1.83;;;18.40;62.30;;;;;;5076794;28;43689;-76
2023/04/10 00:22:50;;;;;;;1.97;1.97;;;18.40;62.50;;;;;;5091425;28;44442;-77
2023/04/10 00:25:18;;;;;;;1.93;1.93;;;18.30;62.50;;;;;;5090514;28;44931;-77
2023/04/10 00:27:46;;;;;;;2.00;2.00;;;18.30;62.70;;;;;;5073131;28;43396;-77
2023/04/10 00:30:17;;;;;;;2.00;2.00;;;18.30;62.70;;;;;;5074797;28;43806;-76
2023/04/10 00:32:45;;;;;;;1.80;1.80;;;18.30;62.50;;;;;;5092881;28;44021;-76
2023/04/10 00:35:14;;;;;;;1.80;1.80;;;18.30;62.60;;;;;;5066811;28;43415;-76
2023/04/10 00:37:42;;;;;;;2.10;2.10;;;18.30;62.60;;;;;;5096210;28;43501;-77
2023/04/10 00:40:11;;;;;;;2.00;2.00;;;18.20;62.60;;;;;;5077592;28;43595;-77
2023/04/10 00:42:39;;;;;;;1.80;1.80;;;18.20;62.70;;;;;;5095697;28;43845;-77
2023/04/10 00:45:08;;;;;;;1.80;1.80;;;18.30;62.60;;;;;;5075820;28;44438;-76
2023/04/10 00:47:37;;;;;;;1.93;1.93;;;18.30;62.50;;;;;;5076140;28;43381;-77
2023/04/10 00:50:06;;;;;;;1.90;1.90;;;18.30;62.70;;;;;;5092650;28;43446;-78
2023/04/10 00:52:34;;;;;;;1.87;1.87;;;18.30;62.70;;;;;;5092693;27;43900;-77
2023/04/10 00:55:02;;;;;;;1.80;1.80;;;18.20;62.80;;;;;;5095979;28;43369;-77
2023/04/10 00:57:31;;;;;;;2.00;2.00;;;18.30;62.80;;;;;;5071543;28;43385;-77
2023/04/10 00:59:59;;;;;;;1.80;1.80;;;18.30;62.50;;;;;;5095515;28;43444;-77
2023/04/10 01:02:27;;;;;;;1.90;1.90;;;18.40;62.20;;;;;;5066567;28;46277;-77
2023/04/10 01:04:56;;;;;;;1.80;1.80;;;18.50;62.10;;;;;;5065869;22;45050;-69
2023/04/10 01:07:30;;;;;;;1.70;1.70;;;18.50;61.70;;;;;;5052389;28;43432;-71
2023/04/10 01:09:59;;;;;;;1.90;1.90;;;18.50;62.00;;;;;;5057997;28;43509;-71
2023/04/10 01:12:38;;;;;;;1.90;1.90;;;18.50;62.00;;;;;;5051863;28;43674;-71
2023/04/10 01:15:08;;;;;;;1.80;1.80;;;18.50;61.90;;;;;;5067649;28;44849;-71
2023/04/10 01:17:42;;;;;;;2.00;2.00;;;18.40;61.90;;;;;;5067013;28;43567;-71
2023/04/10 01:20:13;;;;;;;1.87;1.87;;;18.40;62.10;;;;;;5065126;28;43973;-71
2023/04/10 01:23:02;;;;;;;1.80;1.80;;;18.30;62.20;;;;;;5055693;28;43922;-69
2023/04/10 01:25:40;;;;;;;1.90;1.90;;;18.30;62.50;;;;;;5053315;28;43479;-71
2023/04/10 01:28:44;;;;;;;2.00;2.00;;;18.30;62.30;;;;;;5033419;28;43452;-70
2023/04/10 01:31:15;;;;;;;1.90;1.90;;;18.30;62.20;;;;;;4972837;28;43442;-70
2023/04/10 01:33:46;;;;;;;1.60;1.60;;;18.30;62.40;;;;;;5027186;28;45299;-71
2023/04/10 01:36:16;;;;;;;1.90;1.90;;;18.30;62.60;;;;;;5051776;28;43508;-70
2023/04/10 01:38:44;;;;;;;2.00;2.00;;;18.20;62.60;;;;;;5032707;28;43507;-70
2023/04/10 01:41:12;;;;;;;1.90;1.90;;;18.30;62.70;;;;;;5049293;28;43465;-70
2023/04/10 01:43:40;;;;;;;2.07;2.07;;;18.30;62.30;;;;;;5052873;28;43819;-70
2023/04/10 01:46:08;;;;;;;1.90;1.90;;;18.40;62.20;;;;;;5064534;28;44621;-70
2023/04/10 01:48:37;;;;;;;1.90;1.90;;;18.50;61.90;;;;;;5063031;28;43890;-70
2023/04/10 01:51:06;;;;;;;2.00;2.00;;;18.40;62.00;;;;;;5057894;28;43440;-70
2023/04/10 01:53:34;;;;;;;2.10;2.10;;;18.40;62.20;;;;;;5047857;28;43897;-70
2023/04/10 01:56:02;;;;;;;2.00;2.00;;;18.40;62.20;;;;;;5059078;28;44449;-70
2023/04/10 01:58:35;;;;;;;2.00;2.00;;;18.40;62.10;;;;;;5063970;28;43399;-69
2023/04/10 02:01:05;;;;;;;1.87;1.87;;;18.40;62.20;;;;;;5040176;28;43594;-70
2023/04/10 02:03:33;;;;;;;1.90;1.90;;;18.30;62.20;;;;;;5054007;28;46041;-70
2023/04/10 02:06:11;;;;;;;1.90;1.90;;;18.30;62.40;;;;;;5032196;28;44806;-70
2023/04/10 02:08:40;;;;;;;2.10;2.10;;;18.30;62.50;;;;;;5046168;28;43555;-70
2023/04/10 02:11:13;;;;;;;1.90;1.90;;;18.30;62.40;;;;;;5032158;28;43595;-69
2023/04/10 02:13:41;;;;;;;1.90;1.90;;;18.30;62.20;;;;;;5033203;28;45646;-70
2023/04/10 02:16:09;;;;;;;1.90;1.90;;;18.30;62.40;;;;;;5034751;28;43964;-70
2023/04/10 02:18:37;;;;;;;2.00;2.00;;;18.20;62.40;;;;;;5029226;28;43437;-70
2023/04/10 02:21:07;;;;;;;2.10;2.10;;;18.20;62.50;;;;;;5033550;28;44058;-70
2023/04/10 02:23:35;;;;;;;2.13;2.13;;;18.20;62.50;;;;;;5047662;28;43594;-70
2023/04/10 02:26:07;;;;;;;2.00;2.00;;;18.20;62.30;;;;;;5029471;28;44669;-70
2023/04/10 02:28:37;;;;;;;2.00;2.00;;;18.20;62.30;;;;;;5046085;28;43407;-70
2023/04/10 02:31:06;;;;;;;1.90;1.90;;;18.20;62.30;;;;;;5051545;28;43447;-70
2023/04/10 02:33:34;;;;;;;2.10;2.10;;;18.20;62.40;;;;;;5028803;28;46027;-70
2023/04/10 02:36:02;;;;;;;2.10;2.10;;;18.20;62.50;;;;;;5053677;28;43449;-70
2023/04/10 02:38:32;;;;;;;2.10;2.10;;;18.20;62.50;;;;;;5048967;28;43420;-69
2023/04/10 02:41:00;;;;;;;2.13;2.13;;;18.30;62.30;;;;;;5048177;28;43475;-70
2023/04/10 02:43:28;;;;;;;2.10;2.10;;;18.40;62.10;;;;;;5037777;28;44792;-69
2023/04/10 02:45:56;;;;;;;1.90;1.90;;;18.50;61.70;;;;;;5031815;28;44761;-69
2023/04/10 02:48:27;;;;;;;2.23;2.23;;;18.50;61.50;;;;;;5025293;28;44017;-69
2023/04/10 02:50:59;;;;;;;2.03;2.03;;;18.50;61.50;;;;;;5034708;28;43442;-69
2023/04/10 02:53:28;;;;;;;2.37;2.37;;;18.40;61.70;;;;;;5033436;28;44051;-71
2023/04/10 02:56:01;;;;;;;2.00;2.00;;;18.50;61.70;;;;;;5034876;28;43892;-71
2023/04/10 02:58:30;;;;;;;1.93;1.93;;;18.40;61.50;;;;;;5034309;28;43771;-71
2023/04/10 03:00:59;;;;;;;2.00;2.00;;;18.40;61.70;;;;;;5027680;28;43596;-71
2023/04/10 03:03:39;;;;;;;2.00;2.00;;;18.30;61.90;;;;;;5028577;28;45464;-71
2023/04/10 03:06:09;;;;;;;1.93;1.93;;;18.30;62.10;;;;;;5034172;28;44118;-71
2023/04/10 03:08:38;;;;;;;2.20;2.20;;;18.30;62.20;;;;;;5030282;28;43408;-71
2023/04/10 03:11:08;;;;;;;2.17;2.17;;;18.30;62.00;;;;;;5024220;28;43602;-71
2023/04/10 03:13:36;;;;;;;2.10;2.10;;;18.30;62.00;;;;;;5047162;28;45422;-71
2023/04/10 03:16:05;;;;;;;2.10;2.10;;;18.30;62.20;;;;;;5032901;28;44702;-71
2023/04/10 03:18:34;;;;;;;2.13;2.13;;;18.20;62.20;;;;;;5033225;28;44242;-71
2023/04/10 03:21:02;;;;;;;1.97;1.97;;;18.20;62.20;;;;;;5033196;28;43547;-71
2023/04/10 03:23:30;;;;;;;2.30;2.30;;;18.20;62.30;;;;;;5049865;28;43905;-71
2023/04/10 03:25:58;;;;;;;2.00;2.00;;;18.20;62.10;;;;;;5053493;28;43435;-71
2023/04/10 03:28:31;;;;;;;1.97;1.97;;;18.20;62.10;;;;;;5033027;28;43432;-70
2023/04/10 03:30:59;;;;;;;1.90;1.90;;;18.20;62.20;;;;;;5047288;28;43532;-71
2023/04/10 03:33:30;;;;;;;2.00;2.00;;;18.20;62.30;;;;;;5036574;28;44157;-71
2023/04/10 03:36:00;;;;;;;2.23;2.23;;;18.20;62.40;;;;;;5038460;28;45146;-71
2023/04/10 03:38:28;;;;;;;1.90;1.90;;;18.20;62.40;;;;;;5030498;28;43325;-71
2023/04/10 03:40:56;;;;;;;2.70;2.40;;;18.30;62.20;;;;;;5033073;28;44044;-71
2023/04/10 03:43:28;;;;;;;2.63;2.53;;;18.40;61.90;;;;;;5018193;28;43977;-71
2023/04/10 03:45:59;;;;;;;3.30;2.90;;;18.50;61.70;;;;;;5032651;28;45045;-71
2023/04/10 03:48:29;;;;;;;3.50;3.20;;;18.50;61.40;;;;;;5048372;28;43483;-71
2023/04/10 03:50:57;;;;;;;5.97;3.80;;;18.40;61.30;;;;;;5044654;28;43394;-71
2023/04/10 03:53:25;;;;;;;6.23;3.70;;;18.40;61.60;;;;;;5033098;28;45618;-71
2023/04/10 03:55:54;;;;;;;7.40;4.40;;;18.40;61.50;;;;;;5029138;28;44459;-71
2023/04/10 03:58:24;;;;;;;5.73;4.03;;;18.40;61.60;;;;;;5027720;28;43404;-71
2023/04/10 04:00:55;;;;;;;6.67;4.40;;;18.40;61.80;;;;;;5028761;28;43573;-71
2023/04/10 04:03:35;;;;;;;11.03;5.47;;;18.30;61.60;;;;;;5030861;28;44183;-71
2023/04/10 04:06:23;;;;;;;10.43;5.70;;;18.30;62.00;;;;;;5041122;28;43468;-71
2023/04/10 04:09:09;;;;;;;11.57;5.43;;;18.30;62.00;;;;;;5043925;28;43425;-71
2023/04/10 04:12:00;;;;;;;11.37;5.87;;;18.30;61.70;;;;;;5036747;28;43464;-71
2023/04/10 04:14:47;;;;;;;11.00;5.63;;;18.30;62.00;;;;;;5048364;28;43597;-71
2023/04/10 04:17:41;;;;;;;16.87;7.20;;;18.20;61.90;;;;;;5041112;28;43453;-70
2023/04/10 04:20:11;;;;;;;14.13;7.10;;;18.20;61.80;;;;;;5047480;28;43482;-71
2023/04/10 04:23:10;;;;;;;17.07;7.87;;;18.20;61.70;;;;;;5028386;28;43532;-71
2023/04/10 04:25:51;;;;;;;19.23;7.53;;;18.30;61.70;;;;;;5049268;28;44023;-71
2023/04/10 04:28:38;;;;;;;18.27;8.30;;;18.20;61.90;;;;;;5051420;28;43953;-71
2023/04/10 04:31:23;;;;;;;20.40;8.93;;;18.20;62.00;;;;;;5026238;28;44039;-71
2023/04/10 04:34:09;;;;;;;22.30;9.03;;;18.20;61.80;;;;;;5050753;28;43468;-71
2023/04/10 04:36:58;;;;;;;21.00;8.60;;;18.20;61.60;;;;;;5052162;28;43915;-71
2023/04/10 04:39:47;;;;;;;18.13;8.40;;;18.30;61.30;;;;;;5053470;28;43653;-71
2023/04/10 04:42:24;;;;;;;18.43;8.43;;;18.40;61.00;;;;;;5048300;28;43368;-70
2023/04/10 04:45:11;;;;;;;18.80;9.10;;;18.40;60.70;;;;;;5054973;28;43416;-71
2023/04/10 04:48:04;;;;;;;21.87;9.70;;;18.40;61.00;;;;;;5050110;28;43789;-71
2023/04/10 04:50:51;;;;;;;21.90;9.37;;;18.40;61.00;;;;;;5038763;28;44577;-70
2023/04/10 04:53:40;;;;;;;20.17;9.60;;;18.40;61.00;;;;;;5030098;28;43400;-70
2023/04/10 04:56:34;;;;;;;18.43;9.33;;;18.40;61.20;;;;;;5031080;28;44130;-71
2023/04/10 04:59:20;;;;;;;18.40;8.90;;;18.30;61.40;;;;;;5049826;28;43667;-71
2023/04/10 05:02:15;;;;;;;20.13;9.67;;;18.30;61.60;;;;;;5040745;28;44012;-71
2023/04/10 05:05:00;;;;;;;21.17;9.27;;;18.20;61.30;;;;;;5033125;28;43943;-71
2023/04/10 05:07:40;;;;;;;18.93;9.00;;;18.30;61.40;;;;;;5032306;28;43588;-71
2023/04/10 05:10:26;;;;;;;18.73;9.23;;;18.20;61.30;;;;;;5033194;28;46070;-71
2023/04/10 05:13:20;;;;;;;19.43;8.83;;;18.20;61.60;;;;;;5017361;28;43477;-71
2023/04/10 05:16:14;;;;;;;19.83;10.37;;;18.20;61.80;;;;;;5051494;28;43496;-71
2023/04/10 05:19:01;;;;;;;22.30;10.10;;;18.20;61.50;;;;;;5045068;28;43412;-71
2023/04/10 05:21:51;;;;;;;20.60;9.27;;;18.20;61.30;;;;;;5042551;28;43706;-71
2023/04/10 05:24:37;;;;;;;18.70;9.33;;;18.20;61.50;;;;;;5047908;28;43482;-71
2023/04/10 05:27:12;;;;;;;22.93;9.43;;;18.20;61.70;;;;;;5044135;28;43412;-71
2023/04/10 05:29:59;;;;;;;19.40;9.47;;;18.20;61.80;;;;;;5052024;28;43466;-71
2023/04/10 05:32:46;;;;;;;22.77;10.60;;;18.10;61.50;;;;;;5030128;28;45451;-71
2023/04/10 05:35:39;;;;;;;24.37;11.20;;;18.20;61.30;;;;;;5032423;28;44353;-70
2023/04/10 05:38:23;;;;;;;19.80;9.93;;;18.30;61.00;;;;;;5033332;28;43481;-71
2023/04/10 05:41:08;;;;;;;25.93;10.13;;;18.40;60.70;;;;;;5029653;28;43595;-71
2023/04/10 05:43:52;;;;;;;23.03;10.23;;;18.40;60.50;;;;;;5031951;28;45790;-71
2023/04/10 05:46:38;;;;;;;22.27;10.53;;;18.40;60.60;;;;;;5054907;28;43487;-71
2023/04/10 05:49:21;;;;;;;19.23;9.20;;;18.40;60.70;;;;;;5021745;28;43452;-71
2023/04/10 05:52:19;;;;;;;21.23;9.47;;;18.40;60.60;;;;;;5026735;28;43506;-71
2023/04/10 05:55:11;;;;;;;22.00;10.40;;;18.40;60.90;;;;;;5034167;28;45665;-70
2023/04/10 05:58:17;;;;;;;18.20;9.13;;;18.30;61.10;;;;;;4962083;28;43515;-71
2023/04/10 06:01:06;;;;;;;19.47;9.93;;;18.20;61.20;;;;;;4961561;28;43957;-70
2023/04/10 06:03:59;;;;;;;18.77;9.57;;;18.20;60.90;;;;;;5020747;28;44500;-70
2023/04/10 06:06:28;;;;;;;16.17;9.63;;;18.20;60.90;;;;;;5024430;28;44954;-70
2023/04/10 06:08:56;;;;;;;15.67;8.90;;;18.20;61.20;;;;;;5015310;28;43445;-71
2023/04/10 06:11:24;;;;;;;16.40;9.03;;;18.20;61.40;;;;;;5030603;28;43572;-70
2023/04/10 06:13:55;;;;;;;17.97;8.80;;;18.20;61.50;;;;;;5017271;28;43516;-71
2023/04/10 06:16:31;;;;;;;16.90;9.87;;;18.20;61.20;;;;;;5020335;28;46022;-70
2023/04/10 06:18:59;;;;;;;17.80;9.23;;;18.20;60.90;;;;;;5021676;28;44792;-70
2023/04/10 06:21:27;;;;;;;14.60;8.50;;;18.30;61.10;;;;;;5035025;28;44002;-70
2023/04/10 06:23:55;;;;;;;15.97;8.47;;;18.20;61.30;;;;;;5030586;28;43453;-71
2023/04/10 06:26:24;;;;;;;16.40;8.77;;;18.20;61.40;;;;;;5020337;28;45719;-70
2023/04/10 06:28:52;;;;;;;15.97;8.83;;;18.20;61.40;;;;;;5020901;28;44921;-71
2023/04/10 06:31:21;;;;;;;16.13;8.90;;;18.20;61.20;;;;;;5013040;28;43501;-70
2023/04/10 06:33:51;;;;;;;14.70;8.60;;;18.30;61.00;;;;;;5019756;28;43397;-70
2023/04/10 06:36:19;;;;;;;14.33;8.53;;;18.40;60.70;;;;;;5014110;28;44086;-70
2023/04/10 06:38:54;;;;;;;13.27;8.47;;;18.40;60.50;;;;;;5020840;28;43352;-70
2023/04/10 06:41:23;;;;;;;14.03;8.17;;;18.40;60.30;;;;;;5050038;28;43376;-70
2023/04/10 06:43:54;;;;;;;14.27;8.50;;;18.40;60.60;;;;;;5046054;28;43427;-70
2023/04/10 06:46:22;;;;;;;12.57;7.90;;;18.40;60.60;;;;;;5040039;28;43978;-70
2023/04/10 06:48:52;;;;;;;12.60;7.63;;;18.40;60.60;;;;;;5023063;28;44997;-70
2023/04/10 06:51:20;;;;;;;11.73;8.43;;;18.40;60.70;;;;;;5018146;28;44097;-70
2023/04/10 06:53:53;;;;;;;14.17;7.83;;;18.30;61.00;;;;;;5036397;28;43458;-70
2023/04/10 06:56:21;;;;;;;14.40;8.20;;;18.30;61.10;;;;;;5036260;28;43905;-70
2023/04/10 06:58:49;;;;;;;14.93;8.33;;;18.30;61.10;;;;;;5049147;28;43845;-70
2023/04/10 07:01:16;;;;;;;12.73;7.97;;;18.30;60.90;;;;;;5030811;28;43361;-70
2023/04/10 07:03:45;;;;;;;10.93;7.40;;;18.30;60.90;;;;;;5041385;28;44026;-70
2023/04/10 07:06:14;;;;;;;11.13;7.70;;;18.30;61.20;;;;;;5017559;28;44018;-70
2023/04/10 07:08:42;;;;;;;10.57;7.10;;;18.20;61.20;;;;;;5020133;28;45064;-70
2023/04/10 07:11:10;;;;;;;12.00;7.83;;;18.20;61.20;;;;;;5045084;28;43893;-70
2023/04/10 07:13:38;;;;;;;11.53;7.87;;;18.20;61.20;;;;;;5055145;28;43456;-70
2023/04/10 07:16:08;;;;;;;13.60;8.37;;;18.20;61.10;;;;;;5041832;28;43865;-70
2023/04/10 07:18:37;;;;;;;11.83;7.73;;;18.30;60.90;;;;;;5047421;28;43609;-70
2023/04/10 07:21:10;;;;;;;13.67;7.73;;;18.40;60.60;;;;;;5051243;28;43435;-70
2023/04/10 07:23:40;;;;;;;12.77;7.80;;;18.40;60.40;;;;;;5051828;28;43445;-70
2023/04/10 07:26:08;;;;;;;13.67;8.40;;;18.40;60.50;;;;;;5029977;28;45732;-70
2023/04/10 07:28:37;;;;;;;12.07;7.93;;;18.30;60.70;;;;;;5045498;28;44041;-70
2023/04/10 07:31:06;;;;;;;10.50;7.57;;;18.30;60.70;;;;;;5043990;28;44060;-70
2023/04/10 07:33:35;;;;;;;9.90;6.87;;;18.30;60.60;;;;;;5052228;28;43788;-70
2023/04/10 07:36:04;;;;;;;9.80;6.93;;;18.30;60.90;;;;;;5046532;28;43861;-70
2023/04/10 07:38:32;;;;;;;10.27;7.00;;;18.30;61.10;;;;;;5040472;28;43907;-71
2023/04/10 07:41:02;;;;;;;10.10;7.10;;;18.30;61.40;;;;;;5039187;28;43396;-70
2023/04/10 07:43:30;;;;;;;10.07;7.30;;;18.20;61.20;;;;;;5047230;28;43419;-70
2023/04/10 07:45:58;;;;;;;10.87;7.40;;;18.20;61.00;;;;;;5050089;28;44879;-71
2023/04/10 07:48:26;;;;;;;12.13;7.53;;;18.30;61.20;;;;;;5039704;28;44427;-71
2023/04/10 07:50:54;;;;;;;7.57;6.10;;;18.20;61.30;;;;;;5035432;28;43392;-71
2023/04/10 07:53:22;;;;;;;11.03;7.00;;;18.20;61.40;;;;;;5055720;28;43406;-70
2023/04/10 07:55:50;;;;;;;13.17;7.20;;;18.20;61.40;;;;;;5044192;28;43606;-70
2023/04/10 07:58:19;;;;;;;9.57;6.80;;;18.20;61.30;;;;;;5058317;28;43541;-70
2023/04/10 08:00:47;;;;;;;9.70;7.33;;;18.30;61.30;;;;;;5053204;28;43396;-70
2023/04/10 08:03:15;;;;;;;9.00;6.63;;;18.40;60.90;;;;;;5024996;28;43465;-70
2023/04/10 08:05:44;;;;;;;9.10;6.43;;;18.40;60.70;;;;;;5057956;28;43601;-70
2023/04/10 08:08:12;;;;;;;7.40;6.10;;;18.40;60.70;;;;;;5051710;28;43432;-70
2023/04/10 08:10:39;;;;;;;18.47;6.80;;;18.40;60.90;;;;;;5048431;28;44322;-70
2023/04/10 08:13:07;;;;;;;8.07;6.23;;;18.30;60.90;;;;;;5057154;28;43462;-70
2023/04/10 08:15:37;;;;;;;6.17;5.57;;;18.30;60.80;;;;;;5050550;28;43624;-70
2023/04/10 08:18:05;;;;;;;7.57;6.30;;;18.30;60.90;;;;;;5049941;28;43991;-70
2023/04/10 08:20:35;;;;;;;8.60;6.43;;;18.30;61.20;;;;;;5050684;28;43557;-70
2023/04/10 08:23:04;;;;;;;8.80;6.47;;;18.30;61.30;;;;;;5036557;28;43981;-70
2023/04/10 08:25:46;;;;;;;7.47;6.40;;;18.20;61.30;;;;;;5046673;28;43873;-70
2023/04/10 08:28:14;;;;;;;7.93;6.27;;;18.20;61.20;;;;;;5043629;28;44109;-70
2023/04/10 08:30:44;;;;;;;7.60;5.97;;;18.20;61.20;;;;;;5051228;28;43447;-70
2023/04/10 08:33:12;;;;;;;6.90;6.17;;;18.20;61.30;;;;;;5034608;28;43411;-70
2023/04/10 08:35:40;;;;;;;6.37;5.80;;;18.20;61.50;;;;;;5030754;28;43997;-70
2023/04/10 08:38:11;;;;;;;7.87;6.33;;;18.20;61.60;;;;;;5055646;28;43921;-70
2023/04/10 08:40:43;;;;;;;7.70;5.63;;;18.10;61.50;;;;;;5048741;28;43507;-70
2023/04/10 08:43:11;;;;;;;6.13;5.53;;;18.20;61.50;;;;;;5033689;28;43586;-70
2023/04/10 08:45:40;;;;;;;6.50;5.73;;;18.30;61.30;;;;;;5050452;28;43883;-71
2023/04/10 08:48:13;;;;;;;7.93;5.67;;;18.30;61.00;;;;;;5033791;28;44883;-70
2023/04/10 08:50:41;;;;;;;7.27;5.77;;;18.40;60.90;;;;;;5048239;28;43981;-70
2023/04/10 08:53:11;;;;;;;6.50;5.67;;;18.40;61.10;;;;;;5051389;28;43487;-70
2023/04/10 08:55:39;;;;;;;6.43;5.77;;;18.30;61.10;;;;;;5050977;28;43937;-70
2023/04/10 08:58:07;;;;;;;5.87;5.37;;;18.30;61.10;;;;;;5048179;28;44005;-70
2023/04/10 09:00:37;;;;;;;5.23;4.90;;;18.30;61.10;;;;;;5045820;28;43446;-70
2023/04/10 09:03:07;;;;;;;5.40;4.97;;;18.30;61.40;;;;;;5046399;28;43985;-70
2023/04/10 09:05:37;;;;;;;6.10;5.50;;;18.20;61.40;;;;;;5041277;28;43957;-70
2023/04/10 09:08:06;;;;;;;5.63;5.13;;;18.20;61.60;;;;;;5047714;28;43349;-70
2023/04/10 09:10:34;;;;;;;5.43;5.03;;;18.20;61.60;;;;;;5049124;28;43940;-70
2023/04/10 09:13:02;;;;;;;5.23;4.83;;;18.20;61.40;;;;;;5027665;28;43764;-70
2023/04/10 09:15:49;;;;;;;5.57;5.07;;;18.20;61.50;;;;;;5029551;28;44211;-70
2023/04/10 09:18:18;;;;;;;5.10;4.77;;;18.20;61.70;;;;;;5031879;28;44586;-70
2023/04/10 09:20:50;;;;;;;6.10;5.50;;;18.20;61.80;;;;;;5051694;28;43452;-70
2023/04/10 09:23:21;;;;;;;5.40;4.90;;;18.10;61.80;;;;;;5054826;28;43404;-70
2023/04/10 09:25:49;;;;;;;5.53;5.13;;;18.20;61.80;;;;;;5051382;28;43576;-70
2023/04/10 09:28:18;;;;;;;5.70;5.20;;;18.20;61.60;;;;;;5048502;28;43500;-70
2023/04/10 09:30:46;;;;;;;5.33;4.87;;;18.30;61.30;;;;;;5051986;28;43452;-71
2023/04/10 09:33:23;;;;;;;5.47;5.00;;;18.30;61.10;;;;;;5054327;28;43462;-71
2023/04/10 09:35:53;;;;;;;5.10;4.70;;;18.30;61.20;;;;;;5032285;28;46363;-70
2023/04/10 09:38:21;;;;;;;5.17;4.67;;;18.30;61.40;;;;;;5052468;28;43589;-70
2023/04/10 09:40:49;;;;;;;18.50;4.57;;;18.30;61.40;;;;;;5053318;28;43505;-70
2023/04/10 09:43:20;;;;;;;5.07;4.63;;;18.30;61.30;;;;;;5052891;28;43925;-70
2023/04/10 09:45:49;;;;;;;4.77;4.37;;;18.30;61.50;;;;;;5032833;28;45233;-70
2023/04/10 09:48:17;;;;;;;5.23;4.70;;;18.20;61.60;;;;;;5050586;28;43385;-70
2023/04/10 09:50:45;;;;;;;4.37;4.10;;;18.20;61.60;;;;;;5031623;28;43459;-71
2023/04/10 09:53:15;;;;;;;5.43;4.93;;;18.20;61.80;;;;;;5038947;28;44189;-71
2023/04/10 09:55:43;;;;;;;5.00;4.50;;;18.20;61.70;;;;;;5044766;28;43997;-70
2023/04/10 09:58:11;;;;;;;4.53;4.23;;;18.20;61.70;;;;;;5035724;28;44901;-70
2023/04/10 10:00:41;;;;;;;4.53;4.17;;;18.20;61.80;;;;;;5046159;28;43431;-70
2023/04/10 10:03:10;;;;;;;4.33;4.13;;;18.20;61.80;;;;;;5025748;28;43543;-70
2023/04/10 10:05:40;;;;;;;4.20;4.00;;;18.20;61.90;;;;;;5049932;28;43611;-70
2023/04/10 10:08:09;;;;;;;4.60;4.30;;;18.10;61.90;;;;;;5054407;28;44037;-70
2023/04/10 10:10:41;;;;;;;4.20;4.00;;;18.20;61.90;;;;;;5037133;28;43590;-71
2023/04/10 10:13:09;;;;;;;4.57;4.27;;;18.20;61.60;;;;;;5052838;28;43935;-71
2023/04/10 10:15:39;;;;;;;4.10;3.90;;;18.30;61.50;;;;;;5052576;28;43899;-70
2023/04/10 10:18:10;;;;;;;4.63;4.33;;;18.30;61.40;;;;;;5047357;28;44109;-70
2023/04/10 10:20:38;;;;;;;4.10;3.90;;;18.30;61.60;;;;;;5023075;28;43372;-70
2023/04/10 10:23:06;;;;;;;4.07;3.83;;;18.20;61.60;;;;;;5033810;28;43479;-70
2023/04/10 10:25:35;;;;;;;4.23;3.93;;;18.20;61.60;;;;;;5036388;28;45542;-71
2023/04/10 10:28:04;;;;;;;4.20;4.00;;;18.30;61.80;;;;;;5046658;28;43460;-71
2023/04/10 10:30:33;;;;;;;4.10;3.80;;;18.20;61.70;;;;;;5053467;28;43998;-71
2023/04/10 10:33:02;;;;;;;3.93;3.73;;;18.20;61.90;;;;;;5050169;28;43452;-71
2023/04/10 10:35:31;;;;;;;4.03;3.83;;;18.20;61.90;;;;;;5030216;28;45622;-71
2023/04/10 10:37:59;;;;;;;5.53;4.00;;;18.20;62.10;;;;;;5050066;28;44125;-70
2023/04/10 10:40:30;;;;;;;4.43;4.13;;;18.20;62.10;;;;;;5033681;28;43467;-71
2023/04/10 10:43:10;;;;;;;3.67;3.47;;;18.20;62.00;;;;;;5056035;28;43450;-70
2023/04/10 10:45:41;;;;;;;3.67;3.47;;;18.20;62.10;;;;;;5047525;28;44046;-71
2023/04/10 10:48:10;;;;;;;4.27;3.97;;;18.20;62.20;;;;;;5049360;28;43516;-70
2023/04/10 10:50:55;;;;;;;3.67;3.47;;;18.20;62.30;;;;;;5052495;28;43463;-70
2023/04/10 10:53:34;;;;;;;4.37;4.00;;;18.10;62.30;;;;;;5033816;28;43484;-70
2023/04/10 10:56:38;;;;;;;3.87;3.57;;;18.20;62.90;;;;;;5045338;28;43989;-70
2023/04/10 10:59:07;;;;;;;3.90;3.70;;;18.30;61.90;;;;;;5025405;28;44749;-70
2023/04/10 11:01:35;;;;;;;3.80;3.60;;;18.40;61.60;;;;;;5045568;28;43507;-70
2023/04/10 11:04:38;;;;;;;3.90;3.70;;;18.40;61.60;;;;;;5031360;28;44148;-70
2023/04/10 11:07:06;;;;;;;3.83;3.60;;;18.30;61.70;;;;;;5052380;28;45117;-70
2023/04/10 11:09:47;;;;;;;3.90;3.70;;;18.30;61.70;;;;;;5038050;28;43548;-70
2023/04/10 11:12:16;;;;;;;3.27;3.17;;;18.30;61.70;;;;;;5043791;28;43435;-70
2023/04/10 11:14:46;;;;;;;3.07;2.97;;;18.30;61.80;;;;;;5046849;28;43387;-70
2023/04/10 11:17:14;;;;;;;3.57;3.37;;;18.30;62.00;;;;;;5045346;28;45137;-70
2023/04/10 11:19:58;;;;;;;3.57;3.27;;;18.20;62.00;;;;;;5042738;28;44485;-70
2023/04/10 11:22:26;;;;;;;3.57;3.37;;;18.20;62.10;;;;;;5040696;28;44039;-70
2023/04/10 11:24:56;;;;;;;3.60;3.43;;;18.20;62.00;;;;;;5031408;28;43401;-70
2023/04/10 11:27:54;;;;;;;3.43;3.23;;;18.20;62.10;;;;;;5045238;28;43902;-70
2023/04/10 11:30:36;;;;;;;3.07;2.97;;;18.20;62.20;;;;;;5043221;28;43446;-71
2023/04/10 11:33:04;;;;;;;3.20;3.10;;;18.20;62.30;;;;;;5040645;28;44322;-71
2023/04/10 11:35:32;;;;;;;3.27;3.17;;;18.10;62.30;;;;;;5035242;28;43564;-71
2023/04/10 11:38:14;;;;;;;3.60;3.40;;;18.10;62.20;;;;;;5021536;28;45502;-70
2023/04/10 11:41:00;;;;;;;3.77;3.50;;;18.20;62.00;;;;;;5049935;28;44528;-71
2023/04/10 11:43:28;;;;;;;3.07;2.97;;;18.30;61.80;;;;;;5048910;28;43376;-70
2023/04/10 11:46:01;;;;;;;2.97;2.87;;;18.30;61.70;;;;;;5046385;28;43842;-70
2023/04/10 11:48:30;;;;;;;3.60;3.47;;;18.30;61.80;;;;;;5049163;28;43698;-70
2023/04/10 11:51:00;;;;;;;2.80;2.70;;;18.30;61.90;;;;;;5052323;28;43423;-70
2023/04/10 11:53:28;;;;;;;3.00;2.90;;;18.30;61.90;;;;;;5050857;28;43376;-70
2023/04/10 11:55:57;;;;;;;3.50;3.30;;;18.30;62.00;;;;;;5051665;28;43394;-71
2023/04/10 11:58:26;;;;;;;2.90;2.80;;;18.20;61.90;;;;;;5051099;28;44010;-71
2023/04/10 12:00:57;;;;;;;2.97;2.87;;;18.20;62.00;;;;;;5047425;28;43485;-70
2023/04/10 12:03:40;;;;;;;3.10;3.00;;;18.20;62.10;;;;;;5041572;28;43400;-70
2023/04/10 12:06:12;;;;;;;3.10;3.00;;;18.20;62.20;;;;;;5035649;28;43318;-71
2023/04/10 12:08:41;;;;;;;2.97;2.87;;;18.20;62.10;;;;;;5047805;28;43948;-70
2023/04/10 12:11:10;;;;;;;2.83;2.73;;;18.20;62.20;;;;;;5044250;28;43422;-70
2023/04/10 12:13:38;;;;;;;2.87;2.77;;;18.20;62.20;;;;;;5049517;28;43997;-70
2023/04/10 12:16:08;;;;;;;3.20;2.97;;;18.20;62.20;;;;;;5050771;28;43443;-70
2023/04/10 12:18:36;;;;;;;3.10;3.00;;;18.10;62.20;;;;;;5048139;28;43620;-70
2023/04/10 12:21:06;;;;;;;3.20;3.10;;;18.10;62.20;;;;;;5033778;28;43919;-71
2023/04/10 12:23:37;;;;;;;2.80;2.67;;;18.20;62.10;;;;;;5048624;28;43416;-70
2023/04/10 12:26:10;;;;;;;2.83;2.73;;;18.20;61.80;;;;;;5046608;28;43455;-70
2023/04/10 12:28:40;;;;;;;3.03;2.93;;;18.30;61.70;;;;;;5048430;28;43616;-70
2023/04/10 12:31:08;;;;;;;3.20;3.10;;;18.30;61.60;;;;;;5052143;28;43402;-70
2023/04/10 12:33:36;;;;;;;2.80;2.70;;;18.30;61.80;;;;;;5055119;28;43983;-70
2023/04/10 12:36:06;;;;;;;3.10;3.00;;;18.30;61.90;;;;;;5054329;28;43454;-70
2023/04/10 12:38:38;;;;;;;2.50;2.40;;;18.30;61.80;;;;;;5051416;28;44105;-70
2023/04/10 12:41:10;;;;;;;2.70;2.60;;;18.20;61.80;;;;;;5034841;28;44720;-70
2023/04/10 12:43:43;;;;;;;2.70;2.60;;;18.20;61.90;;;;;;5049555;28;43454;-70
2023/04/10 12:46:20;;;;;;;2.90;2.80;;;18.20;62.00;;;;;;5051328;28;43971;-70
2023/04/10 12:48:48;;;;;;;2.60;2.57;;;18.20;62.20;;;;;;5056499;28;43597;-70
2023/04/10 12:51:17;;;;;;;3.30;3.10;;;18.10;62.10;;;;;;5051896;28;43425;-70
2023/04/10 12:53:46;;;;;;;3.00;2.90;;;18.10;62.10;;;;;;5033320;28;43416;-71
2023/04/10 12:56:16;;;;;;;2.70;2.60;;;18.20;62.30;;;;;;5051949;28;43425;-70
2023/04/10 12:58:46;;;;;;;2.87;2.77;;;18.10;62.30;;;;;;5052041;28;43886;-70
2023/04/10 13:01:14;;;;;;;3.00;2.90;;;18.10;62.40;;;;;;5039324;28;45209;-70
2023/04/10 13:03:42;;;;;;;2.80;2.70;;;18.10;62.40;;;;;;5031697;28;43461;-70
2023/04/10 13:06:10;;;;;;;2.90;2.80;;;18.10;62.30;;;;;;5058790;28;43424;-70
2023/04/10 13:08:40;;;;;;;2.37;2.27;;;18.10;62.30;;;;;;5052274;28;43718;-70
2023/04/10 13:11:08;;;;;;;2.77;2.67;;;18.10;62.40;;;;;;5040494;28;43903;-70